Flight Track Log - Related Links

Times and Time Zones

All times are in EST time to prevent confusion due to time zone crossing. See the N604PJ flight status page for this flight to view local times or setup timezone preferences in your user account.

Time Position Orientation Groundspeed Altitude Reporting Facility
EST Latitude Longitude Course Direction KTS MPH feet Rate Location/Type
Mon 04:01:21 PM 39.1653 -82.2750 174° South 196 226 3,000  Level Indianapolis Center
Mon 04:02:00 PM 38.6330 -82.2099 180° South  Level Estimated
Mon 04:02:23 PM 39.1083 -82.2567 166° South 209 241 5,500  Level Indianapolis Center
Mon 04:03:00 PM 38.5369 -82.1993 175° South  Level FlightAware Approximate
Mon 04:03:25 PM 39.0433 -82.2458 173° South 230 265 7,600  Level Indianapolis Center
Mon 04:04:00 PM 38.4404 -82.1962 169° South  Level Estimated
Mon 04:04:27 PM 38.9592 -82.2500 182° South 252 290 9,900  Level Indianapolis Center
Mon 04:05:00 PM 38.3439 -82.1930 175° South  Level Estimated
Mon 04:05:29 PM 38.8881 -82.2425 175° South 257 296 12,200  Level Indianapolis Center
Mon 04:06:00 PM 38.2479 -82.1804 174° South  Level FlightAware Approximate
Mon 04:06:31 PM 38.8142 -82.2356 176° South 265 305 14,000  Level Indianapolis Center
Mon 04:07:33 PM 38.7389 -82.2303 177° South 270 311 16,000 1,790 Climbing Indianapolis Center
Mon 04:08:35 PM 38.6631 -82.2233 176° South 273 314 17,700 1,645 Climbing Indianapolis Center
Mon 04:09:37 PM 38.5867 -82.2150 175° South 276 318 19,400 1,694 Climbing Indianapolis Center
Mon 04:10:39 PM 38.4925 -82.2086 177° South 281 323 21,200 1,403 Climbing Indianapolis Center
Mon 04:11:41 PM 38.4119 -82.2008 176° South 288 331 22,300 1,113 Climbing Indianapolis Center
Mon 04:12:43 PM 38.3286 -82.1936 176° South 298 343 23,500 1,008 Climbing Indianapolis Center
Mon 04:13:46 PM 38.2447 -82.1883 177° South 302 348 24,400 912 Climbing Indianapolis Center
Mon 04:14:48 PM 38.1581 -82.1811 176° South 310 357 25,400 1,016 Climbing Indianapolis Center
Mon 04:15:50 PM 38.0567 -82.1722 176° South 310 357 26,500 1,016 Climbing Indianapolis Center
Mon 04:16:52 PM 37.9703 -82.1653 176° South 311 358 27,500 919 Climbing Indianapolis Center
Mon 04:17:54 PM 37.8817 -82.1578 176° South 311 358 28,400 871 Climbing Indianapolis Center
Mon 04:18:56 PM 37.7969 -82.1506 176° South 310 357 29,300 726 Climbing Indianapolis Center
Mon 04:19:58 PM 37.7100 -82.1439 177° South 311 358 29,900 774 Climbing Indianapolis Center
Mon 04:21:00 PM 37.6219 -82.1350 175° South 316 364 30,900 774 Climbing Indianapolis Center
Mon 04:22:02 PM 37.5208 -82.1278 177° South 312 359 31,500 629 Climbing Indianapolis Center
Mon 04:23:04 PM 37.4314 -82.1208 176° South 318 366 32,200 677 Climbing Indianapolis Center
Mon 04:24:06 PM 37.3419 -82.1144 177° South 320 368 32,900 629 Climbing Indianapolis Center
Mon 04:25:08 PM 37.2536 -82.1067 176° South 318 366 33,500 532 Climbing Indianapolis Center
Mon 04:26:10 PM 37.1667 -82.0983 176° South 314 361 34,000 242 Climbing Indianapolis Center
Mon 04:27:12 PM 37.0769 -82.0933 177° South 318 366 34,000  Level Indianapolis Center
Mon 04:28:14 PM 36.9658 -82.0839 176° South 334 384 34,000  Level Indianapolis Center
Mon 04:29:16 PM 36.8672 -82.0775 177° South 347 399 34,000  Level Indianapolis Center
Mon 04:30:18 PM 36.7675 -82.0675 175° South 355 409 34,000  Level Indianapolis Center
Mon 04:31:20 PM 36.6675 -82.0611 177° South 357 411 34,000  Level Indianapolis Center
Mon 04:32:23 PM 36.5664 -82.0517 176° South 361 415 34,000  Level Indianapolis Center
Mon 04:33:25 PM 36.4656 -82.0447 177° South 361 415 34,000  Level Indianapolis Center
Mon 04:34:27 PM 36.3478 -82.0344 176° South 362 417 34,000  Level Indianapolis Center
Mon 04:35:29 PM 36.2458 -82.0256 176° South 365 420 34,000  Level Indianapolis Center
Mon 04:36:30 PM 36.1417 -82.0178 177° South 364 419 34,000  Level Atlanta Center
Mon 04:37:30 PM 36.0394 -82.0100 176° South 369 425 34,000  Level Atlanta Center
Mon 04:38:30 PM 35.9369 -81.9997 175° South 369 425 34,000  Level Atlanta Center
Mon 04:39:30 PM 35.8306 -81.9947 178° South 369 425 34,000  Level Atlanta Center
Mon 04:40:30 PM 35.7303 -81.9869 176° South 369 425 34,000  Level Atlanta Center
Mon 04:41:30 PM 35.6281 -81.9794 177° South 369 425 34,000  Level Atlanta Center
Mon 04:42:30 PM 35.5256 -81.9719 177° South 369 425 34,000  Level Atlanta Center
Mon 04:43:30 PM 35.4233 -81.9642 176° South 369 425 34,000  Level Atlanta Center
Mon 04:44:30 PM 35.3208 -81.9567 177° South 369 425 34,000  Level Atlanta Center
Mon 04:45:30 PM 35.2186 -81.9489 176° South 369 425 34,000  Level Atlanta Center
Mon 04:46:30 PM 35.1142 -81.9414 177° South 369 425 34,000  Level Atlanta Center
Mon 04:47:30 PM 35.0094 -81.9314 176° South 374 430 34,000  Level Atlanta Center
Mon 04:48:30 PM 34.9094 -81.9314 180° South 374 430 34,000  Level Atlanta Center
Mon 04:49:30 PM 34.8050 -81.9289 179° South 367 422 34,000  Level Atlanta Center
Mon 04:50:30 PM 34.7028 -81.9239 178° South 367 422 34,000  Level Atlanta Center
Mon 04:51:30 PM 34.5983 -81.9217 179° South 372 428 34,000  Level Atlanta Center
Mon 04:52:30 PM 34.4961 -81.9192 179° South 372 428 34,000  Level Atlanta Center
Mon 04:53:30 PM 34.3936 -81.9142 178° South 372 428 34,000  Level Atlanta Center
Mon 04:54:30 PM 34.2892 -81.9117 179° South 367 422 34,000  Level Atlanta Center
Mon 04:55:30 PM 34.1869 -81.9117 180° South 367 422 34,000  Level Atlanta Center
Mon 04:56:30 PM 34.0847 -81.9094 179° South 367 422 34,000  Level Atlanta Center
Mon 04:57:30 PM 33.9803 -81.9069 179° South 367 422 34,000  Level Atlanta Center
Mon 04:58:30 PM 33.8758 -81.9044 179° South 367 422 34,000  Level Atlanta Center
Mon 04:59:30 PM 33.7736 -81.9022 179° South 367 422 34,000  Level Atlanta Center
Mon 05:00:30 PM 33.6692 -81.8972 178° South 367 422 34,000  Level Atlanta Center
Mon 05:01:30 PM 33.5669 -81.8972 180° South 367 422 34,000  Level Atlanta Center
Mon 05:02:30 PM 33.4625 -81.8925 178° South 367 422 34,000  Level Atlanta Center
Mon 05:03:30 PM 33.3600 -81.8925 180° South 367 422 34,000  Level Atlanta Center
Mon 05:04:30 PM 33.2558 -81.8900 179° South 367 422 34,000  Level Atlanta Center
Mon 05:05:30 PM 33.1533 -81.8875 179° South 367 422 34,000  Level Atlanta Center
Mon 05:06:30 PM 33.0511 -81.8853 179° South 367 422 34,000  Level Atlanta Center
Mon 05:07:30 PM 32.9486 -81.8828 179° South 367 422 34,000  Level Atlanta Center
Mon 05:09:32 PM 32.7450 -81.8800 179° South 365 420 34,000  Level Jacksonville Center
Mon 05:10:32 PM 32.6344 -81.8861 183° South 365 420 34,000  Level Jacksonville Center
Mon 05:11:32 PM 32.5447 -81.8994 187° South 370 426 34,000  Level Jacksonville Center
Mon 05:12:32 PM 32.4319 -81.9081 184° South 370 426 34,000  Level Jacksonville Center
Mon 05:13:32 PM 32.3403 -81.9189 186° South 370 426 34,000  Level Jacksonville Center
Mon 05:14:32 PM 32.2275 -81.9300 185° South 370 426 34,000  Level Jacksonville Center
Mon 05:15:32 PM 32.1275 -81.9408 185° South 365 420 34,000  Level Jacksonville Center
Mon 05:16:32 PM 32.0356 -81.9492 184° South 374 430 34,000  Level Jacksonville Center
Mon 05:17:32 PM 31.9272 -81.9625 186° South 369 425 34,000  Level Jacksonville Center
Mon 05:18:32 PM 31.8353 -81.9731 186° South 369 425 34,000  Level Jacksonville Center
Mon 05:19:32 PM 31.7228 -81.9817 184° South 369 425 34,000  Level Jacksonville Center
Mon 05:20:32 PM 31.6225 -81.9922 185° South 369 425 34,000  Level Jacksonville Center
Mon 05:21:32 PM 31.5328 -82.0006 185° South 369 425 34,000  Level Jacksonville Center
Mon 05:22:32 PM 31.4222 -82.0136 186° South 369 425 34,000  Level Jacksonville Center
Mon 05:23:32 PM 31.3181 -82.0244 185° South 383 441 34,000  Level Jacksonville Center
Mon 05:24:32 PM 31.2136 -82.0350 185° South 383 441 34,000  Level Jacksonville Center
Mon 05:25:32 PM 31.1136 -82.0458 185° South 377 434 34,000  Level Jacksonville Center
Mon 05:26:32 PM 31.0133 -82.0539 184° South 377 434 34,000  Level Jacksonville Center
Mon 05:27:32 PM 30.9089 -82.0669 186° South 372 428 34,000  Level Jacksonville Center
Mon 05:28:32 PM 30.8067 -82.0750 184° South 367 422 34,000  Level Jacksonville Center
Mon 05:29:32 PM 30.7044 -82.0856 185° South 367 422 34,000  Level Jacksonville Center
Mon 05:30:32 PM 30.6044 -82.0961 185° South 367 422 34,000  Level Jacksonville Center
Mon 05:31:32 PM 30.5019 -82.0994 182° South 367 422 34,000  Level Jacksonville Center
Mon 05:32:32 PM 30.4019 -82.1122 186° South 367 422 34,000  Level Jacksonville Center
Mon 05:33:32 PM 30.3017 -82.1228 185° South 367 422 34,000  Level Jacksonville Center
Mon 05:34:32 PM 30.2036 -82.1306 184° South 362 417 34,000  Level Jacksonville Center
Mon 05:35:32 PM 30.1014 -82.1219 176° South 362 417 34,000 -200 Level Jacksonville Center
Mon 05:36:32 PM 29.9969 -82.1011 170° South 367 422 33,600 -500 Descending Jacksonville Center
Mon 05:37:32 PM 29.8903 -82.0828 172° South 372 428 33,000 -300 Descending Jacksonville Center
Mon 05:38:32 PM 29.7878 -82.0597 169° South 377 434 33,000  Level Jacksonville Center
Mon 05:39:32 PM 29.6936 -82.0392 169° South 377 434 33,000  Level Jacksonville Center
Mon 05:40:33 PM 29.5914 -82.0208 171° South 377 434 33,000  Level Jacksonville Center
Mon 05:41:32 PM 29.4889 -81.9978 169° South 377 434 33,000  Level Jacksonville Center
Mon 05:42:32 PM 29.3886 -81.9797 171° South 371 427 33,000  Level Jacksonville Center
Mon 05:43:32 PM 29.2881 -81.9617 171° South 371 427 33,000  Level Jacksonville Center
Mon 05:45:27 PM 29.0853 -81.9214 170° South 369 425 33,000  Level Miami Center
Mon 05:46:27 PM 28.9881 -81.8978 168° South 369 425 33,000  Level Miami Center
Mon 05:47:27 PM 28.8886 -81.8792 171° South 369 425 33,000 -3,000 Level Miami Center
Mon 05:48:27 PM 28.7975 -81.8631 171° South 369 425 27,000 -1,750 Descending Miami Center
Mon 05:49:27 PM 28.6856 -81.8439 171° South 390 449 29,500 150 Climbing Miami Center
Mon 05:50:27 PM 28.5719 -81.8153 168° South 410 472 27,300 -1,250 Descending Miami Center
Mon 05:51:27 PM 28.4642 -81.7892 168° South 410 472 27,000 -600 Descending Miami Center
Mon 05:52:27 PM 28.3547 -81.7561 165° South 410 472 26,100 -850 Descending Miami Center
Mon 05:53:27 PM 28.2453 -81.7231 165° South 410 472 25,300 -850 Descending Miami Center
Mon 05:54:27 PM 28.1358 -81.6925 166° South 405 466 24,400 -1,100 Descending Miami Center
Mon 05:55:27 PM 28.0322 -81.6714 170° South 400 460 23,100 -1,250 Descending Miami Center
Mon 05:56:27 PM 27.9297 -81.6789 184° South 378 435 21,900 -1,150 Descending Miami Center
Mon 05:57:27 PM 27.8322 -81.6583 169° South 378 435 20,800 -1,300 Descending Miami Center
Mon 05:58:27 PM 27.7247 -81.6350 169° South 363 418 19,300 -1,400 Descending Miami Center
Mon 05:59:27 PM 27.6292 -81.6147 169° South 363 418 18,000 -1,150 Descending Miami Center
Mon 06:00:27 PM 27.5339 -81.5967 170° South 358 412 17,000 -1,050 Descending Miami Center
Mon 06:01:27 PM 27.4406 -81.5742 168° South 348 400 15,900 -1,400 Descending Miami Center
Mon 06:02:27 PM 27.3536 -81.5567 170° South 336 387 14,200 -1,750 Descending Miami Center
Mon 06:03:27 PM 27.2644 -81.5389 170° South 331 381 12,400 -1,800 Descending Miami Center
Mon 06:04:27 PM 27.1775 -81.5189 168° South 331 381 10,600 -1,200 Descending Miami Center
Mon 06:05:27 PM 27.0944 -81.4994 168° South 325 374 10,000 -655 Descending Miami Center
Mon 06:06:26 PM 27.0261 -81.4850 169° South 320 368 9,300 -950 Descending Miami Center
Mon 06:07:27 PM 26.9422 -81.4933 185° South 284 327 8,100 -1,289 Descending Miami Center
Mon 06:08:27 PM 26.8842 -81.5492 221° Southwest 263 303 6,700 -1,300 Descending Miami Center
Mon 06:09:27 PM 26.8325 -81.6006 222° Southwest 263 303 5,500 -1,200 Descending Miami Center
Mon 06:10:27 PM 26.7806 -81.6567 224° Southwest 263 303 4,300 -1,350 Descending Miami Center
Mon 06:11:27 PM 26.7242 -81.7194 225° Southwest 263 303 2,800 -1,150 Descending Miami Center
Mon 06:12:27 PM 26.6703 -81.7683 219° Southwest 258 297 2,000 -800 Descending Miami Center
Mon 06:14:00 PM 26.5833 -81.8500 310° West  Level FlightAware Approximate
Mon 06:21:00 PM 26.5866 -81.8633 310° West  Level Estimated
Mon 06:22:00 PM 26.5866 -81.8633 310° West  Level Estimated
Mon 06:23:00 PM 26.5866 -81.8633 310° West  Level Estimated
Mon 06:24:00 PM 26.5866 -81.8633 310° West  Level Estimated

Login

Don't have an account? Register now (free) for customized features, flight alerts, and more!